Aviation Digital Data Service (ADDS)

Output produced by METARs form (1838 UTC 18 June 2019)
found at http://www.aviationweather.gov/metar/data/
 
PADK 181756Z AUTO 26009KT 10SM OVC008 06/05 A3030 RMK AO2 CIG 006V011 SLP260 T00610050 10061 20050 53004
PAMR 181753Z 23006KT 10SM BKN030 OVC037 12/07 A2992 RMK AO2 SLP132 T01220067 10128 20117 52017
PANC 181753Z 22007KT 10SM FEW025 BKN034 OVC090 13/08 A2992 RMK AO2 SLP132 T01280078 10128 20117 53016
PANC 181730Z 1818/1924 25007KT P6SM VCSH SCT025 BKN035 
     FM182200 25006KT P6SM SCT035 BKN090 
     FM190300 19005KT P6SM FEW050 BKN120
       
PANI 181756Z AUTO VRB06KT 9SM FEW001 16/11 A2973 RMK AO2 SLP069 P0002 60002 T01610111 10161 20106 53015
PAAK 181756Z AUTO 31005KT 6SM BR OVC009 06/04 A3030 RMK AO2 CIG 007V012 SLP262 T00610044 10061 20056 53005
PABR 181753Z 25005KT 10SM CLR 05/02 A3008 RMK AO2 SLP186 T00500022 10056 20011 51004
PABR 181740Z 1818/1918 30005KT P6SM SCT010 
     FM190800 06007KT 1SM BR OVC003
       
PABE 181822Z 19006KT 7SM OVC002 12/12 A2976 RMK AO2 T01220117
PABE 181745Z 1818/1918 26008KT 6SM BR SCT004 SCT050 BKN140 
     TEMPO 1818/1820 BKN004 
     FM182200 VRB06KT P6SM VCTS SCT050CB BKN100 
     FM190900 20006KT P6SM VCFG SCT050 BKN100
       
PABV 181810Z AUTO 23004KT 10SM -RA BKN022 BKN038 12/10 A2994 RMK AO2 P0000
PACD 181753Z 26025G28KT 8SM SCT009 OVC012 09/08 A3004 RMK AO2 PK WND 27030/1742 SLP172 T00890078 10089 20083 51012
PACD 181745Z 1818/1918 26020G28KT P6SM VCSH SCT007 OVC012 
     TEMPO 1818/1820 4SM BR BKN007 
     FM190000 26014KT P6SM OVC010 
     FM190800 25010KT P6SM OVC007
       
PACV 181753Z 00000KT 10SM SCT011 BKN044 OVC055 12/09 A2993 RMK AO2 SLP137 T01220089 10122 20083 53016
PACV 181730Z 1818/1918 00000KT P6SM OVC060
       
PASC 181808Z 00000KT 10SM OVC005 01/M01 A3009 RMK AO2 T00061006
PASC 181740Z 1818/1918 VRB03KT 5SM BR OVC004 
     FM182000 02006KT P6SM SCT005 
     FM191000 04005KT P6SM BKN005
       
PABI 181753Z 09004KT 10SM FEW070 BKN090 BKN180 14/10 A2982 RMK AO2 SLP098 MDT CU DSNT E-N T01440100 10156 20083 51013 $
TAF PABI 181400Z 1814/1920 VRB06KT 9999 FEW040 QNH2970INS 
     BECMG 1823/1824 29010G15KT 8000 -SHRA VCTS BKN040CB QNH2982INS 
     BECMG 1913/1914 26012G18KT 9999 NSW FEW040 SCT060 QNH3000INS TX20/1823Z
TN08/1912Z
       
PADL 181836Z 13006KT 9SM OVC005 11/11 A2981 RMK AO2
PADL 181745Z 1818/1918 15008G16KT 5SM BR OVC003 
     FM182100 15010G18KT P6SM BKN007 OVC015 
     FM190100 17014G22KT P6SM FEW025 BKN050 BKN250 
     FM190500 16004KT 4SM BR SCT003 BKN007 OVC015 
     FM191000 16004KT 2SM BR SCT001 OVC003
       
PAFA 181753Z 00000KT 10SM FEW060 BKN090 BKN200 18/09 A2978 RMK AO2 SLP088 T01780089 10178 20133 51015
PAFA 181740Z 1818/1924 35008KT P6SM BKN080 
     FM182100 30005KT P6SM VCSH BKN050 
     FM190000 26005KT P6SM VCTS BKN050CB 
     FM190800 29003KT P6SM BKN080
       
PAGA 181756Z AUTO 11009KT 10SM BKN110 17/09 A2983 RMK AO2 SLP102 T01720089 10178 20133 53018
PAGA 181740Z 1818/1918 10014KT P6SM SCT080 
     FM182200 10008KT P6SM VCTS BKN050CB 
     FM190800 08005KT P6SM BKN080
       
PAGM 181756Z AUTO 02009KT 10SM CLR 11/06 A2994 RMK AO2 SLP143 T01060056 10111 20072 53005
PAGK 181753Z AUTO 22006KT 10SM SCT011 OVC065 11/09 A2987 RMK AO2 RAE15 SLP118 P0001 60003 T01110089 10117 20083 51013 TSNO $
PAGK 181748Z 1818/1918 20004KT P6SM -SHRA SCT030 BKN045 OVC060 
     FM182100 18008KT P6SM -SHRA SCT030 BKN045 
     FM190300 18003KT P6SM VCSH SCT045 BKN100
       
PAGS 181833Z AUTO 12008KT 10SM -RA SCT013 BKN043 OVC050 12/10 A3000 RMK AO2 RAB13 P0000
PAGS 181741Z 1818/1918 12007KT P6SM VCSH SCT011 OVC035 
     TEMPO 1818/1820 6SM -SHRA BR BKN011 OVC020 
     FM182300 22005KT P6SM SCT025 OVC040 
     FM191100 VRB03KT P6SM VCSH OVC025 AMD LTD TO CLD VIS AND WIND
       
PAHN 181754Z AUTO 11012G20KT FEW016 SCT021 BKN034 13/09 A2993 RMK AO2 SLP139 60001 T01280094 10128 20111 53005 TSNO $
PAHN 181741Z 1818/1918 11010G18KT P6SM VCSH FEW011 BKN040 OVC070 
     TEMPO 1818/1819 6SM -SHRA BKN011 OVC040 
     FM182200 11010G18KT P6SM BKN050 OVC070 
     FM190600 10008KT P6SM -SHRA OVC050 
     FM191200 VRB05KT 6SM -SHRA SCT015 OVC050 AMD LTD TO CLD VIS AND WIND
       
PAHO 181753Z VRB03KT 10SM SCT050 BKN070 13/08 A2994 RMK AO2 SLP138 T01330078 10133 20089 53017
PAHO 181730Z 1818/1918 10005KT P6SM BKN050 
     FM182100 23008KT P6SM BKN050 
     FM190500 VRB03KT P6SM BKN050
       
PAHP 181756Z AUTO 33016KT 10SM CLR 12/09 A2980 RMK AO2 SLP128 T01170094 10117 20100 53009
PAIL 181753Z 10011KT 10SM OVC070 13/07 A2991 RMK AO2 SLP127 T01330072 10133 20106 51017
PAIL 181745Z 1818/1918 13011KT P6SM BKN060 BKN100 
     FM190300 VRB05KT P6SM BKN100
       
PAJN 181753Z 11010KT 10SM -RA FEW004 BKN042 OVC060 11/09 A3000 RMK AO2 SLP159 P0005 60029 T01060094 10106 20100 51007
PAJN 181741Z 1818/1918 11010KT 6SM -SHRA BR SCT025 OVC040 
     TEMPO 1818/1820 5SM SHRA BR FEW006 OVC025 
     FM190100 10007KT P6SM VCSH OVC050 
     FM191200 VRB04KT P6SM VCSH SCT025 OVC050
       
PAFE 181756Z AUTO 13006KT 10SM -RA FEW011 OVC033 11/09 A3006 RMK AO2 SLP193 P0004 60008 T01110094 10111 20094 51000
PAEN 181753Z 19012KT 10SM FEW010 SCT110 13/08 A2993 RMK AO2 SLP135 T01280078 10128 20100 51017
PAEN 181730Z 1818/1918 19012KT P6SM SCT015 OVC100 
     FM182200 22012KT P6SM SCT050 BKN100 
     FM190900 19005KT P6SM SCT050 BKN100
       
PAKT 181753Z 14008KT 10SM SCT018 BKN025 OVC065 12/09 RMK SLPNO HARBOR WIND 12013KT 60003 T01220094 10122 20100 $ VIA AUTODIAL
PAKT 181741Z 1818/1918 14009KT P6SM -SHRA BKN035 OVC060 
     TEMPO 1818/1822 6SM -SHRA BR SCT013 BKN025 OVC050 
     FM190200 13006KT P6SM VCSH SCT015 OVC025 AMD LTD TO CLD VIS AND WIND
1906/1915
       
PAKN 181834Z 17011KT 2SM R12/5500VP6000FT RA BR OVC007 10/09 A2985 RMK AO2 CIG 006V011 P0002 T01000094
PAKN 181745Z 1818/1918 17012KT P6SM -SHRA SCT008 SCT015 OVC045 
     TEMPO 1818/1820 BKN008 
     FM190600 19011KT P6SM SCT007 BKN015 OVC025 
     FM191100 19009KT P6SM SCT003 OVC007
       
PAKW 181753Z AUTO 19006KT 10SM FEW015 BKN023 OVC055 11/10 A3007 RMK RAB1659E43 SLP184 P0005 60016 T01110100 10117 20100 50001 TSNO VIA AUTODIAL
PAKW 181741Z 1818/1918 19008KT P6SM -SHRA SCT015 BKN035 OVC050 
     TEMPO 1818/1822 6SM -SHRA BKN015 OVC030 
     FM190300 22004KT P6SM VCSH SCT020 OVC040 AMD LTD TO CLD VIS AND WIND
       
PADQ 181753Z 06004KT 10SM SCT015 BKN040 11/07 A2993 RMK AO2 SLP135 T01060072 10106 20067 51021
PADQ 181730Z 1818/1918 00000KT P6SM SCT015 BKN040 
     FM190000 VRB05KT P6SM SCT040 BKN100
       
PAOT 181753Z 09011KT 10SM CLR 19/06 A2987 RMK AO2 SLP115 T01890061 10189 20150 51010
PAOT 181740Z 1818/1918 07010KT P6SM SCT050 SCT100 
     FM182200 35008KT P6SM FEW050 FEW100
       
PAMC 181753Z 22003KT 10SM SCT026 BKN032 BKN041 16/12 A2982 RMK AO2 SLP100 60000 T01610117 10161 20122 51017
PAMC 181753Z 1818/1918 13004KT P6SM VCSH SCT015 BKN035 
     TEMPO 1818/1820 BKN025 
     FM182200 17005KT P6SM -SHRA VCTS BKN040CB 
     FM190800 20004KT P6SM -SHRA BKN040
       
PANN 181753Z AUTO 31004KT 10SM OVC095 16/09 A2979 RMK AO2 SLP091 T01610094 10161 20100 51016 TSNO
PAOM 181753Z 06008KT 10SM BKN100 17/07 A2977 RMK AO2 SLP082 T01720067 10172 20106 53009
PAOM 181740Z 1818/1918 05010KT P6SM SCT070 
     FM182200 17008KT P6SM FEW050 SCT100 BKN200 
     FM190800 04004KT P6SM FEW050 FEW100
       
PAAQ 181832Z 00000KT 9SM -RA FEW009 BKN020 OVC035 11/10 A2992 RMK AO2 P0002 T01110100
PAAQ 181730Z 1818/1918 00000KT P6SM -SHRA SCT025 BKN035 OVC050 
     TEMPO 1818/1821 BKN025 
     FM182100 14005KT P6SM VCSH SCT025 BKN050 
     FM190300 VRB06KT P6SM BKN100
       
PAPG 181802Z 10006KT 10SM FEW007 SCT019 BKN030 11/09 A3007 RMK AO2
PAPG 181741Z 1818/1918 VRB03KT P6SM -SHRA SCT020 OVC035 
     TEMPO 1818/1822 6SM -SHRA BR FEW008 BKN020 OVC030 
     FM190200 07005KT P6SM VCSH SCT020 OVC050 AMD LTD TO CLD VIS AND WIND
1906/1915
       
PAPO 181756Z AUTO 13006KT 10SM CLR 12/03 A2994 RMK AO2 SLP138 T01170028 10128 20083 51015
PASD 181756Z 00000KT 10SM FEW034 SCT060 SCT100 12/09 A2999 RMK AO2 SLP160 6//// T01220089 10122 20106 53014 PNO $
PASD 181745Z 1818/1918 VRB06KT P6SM VCSH FEW028 SCT040 BKN080 AMD LTD TO CLD VIS
AND WIND
       
PAWD 181753Z AUTO 17005KT 10SM OVC050 12/09 A2993 RMK AO2 SLP135 T01220089 10122 20094 53013 TSNO
PASH 181756Z AUTO 28006KT 5SM BR CLR 10/08 A2989 RMK AO2 SLP122 T01000078 10100 20078 51011
PASI 181822Z 12006KT 10SM -RA OVC028 10/08 A3001 RMK AO2 P0001 T01000078
PASI 181741Z 1818/1918 12006KT 6SM -SHRA BKN030 OVC040 
     TEMPO 1818/1821 VRB05G15KT 4SM SHRA BR BKN025 OVC035 
     FM190000 21008KT P6SM VCSH SCT030 BKN050
       
PAGY 181753Z AUTO 20018G23KT 10SM SCT050 BKN080 13/08 A2991 RMK AO2 SLP127 60002 T01330078 10133 20117 51005 TSNO
PAGY 181741Z 1818/1918 21015KT P6SM VCSH BKN050 OVC070 
     FM182200 21015G25KT P6SM SCT050 OVC070 
     FM190500 21012G20KT 6SM -SHRA OVC050 
     FM191000 21008KT 6SM -SHRA SCT025 OVC050 AMD LTD TO CLD VIS AND WIND
       
PASX 181816Z AUTO VRB05KT 10SM FEW016 SCT110 13/07 A2995 RMK AO2
PAPB 181753Z AUTO 27011KT 4SM BR OVC002 07/06 A3008 RMK AO2 SLP174 T00720061 10072 20061 53007 TSNO
PASN 181820Z AUTO 28012KT 1SM -RA BR OVC002 07/07 A3005 RMK AO2 P0000 T00720067 TSNO
PASN 181745Z 1818/1918 29011KT 1SM BR OVC002 
     FM190500 30007KT 1/2SM FG OVC001
       
PATK 181753Z VRB03KT 10SM OVC048 12/09 A2990 RMK AO2 SLP127 T01220089 10128 20117 53019
PATK 181730Z 1818/1918 19006KT P6SM VCSH OVC050 
     FM190300 VRB03KT P6SM VCSH BKN050
       
PADU 181756Z 22008G16KT 10SM SCT015 SCT040 09/06 A3016 RMK AO2 SLP217 T00890061 10089 20083 51007
PADU 181745Z 1818/1918 23010KT P6SM VCSH FEW008 SCT020 BKN050
       
PAVD 181756Z 24003KT 7SM FEW005 BKN030 OVC060 11/09 A2993 RMK AO2 SLP155 60009 T01110089 10117 20094 53013
PAVD 181730Z 1818/1918 26004KT 6SM -RA BR SCT005 BKN030 OVC080 
     TEMPO 1818/1821 4SM -RA BR SCT005 BKN015 OVC030 
     FM182100 26006KT P6SM VCSH SCT015 BKN040 
     FM190600 VRB03KT P6SM VCSH SCT015 BKN040
       
PAWS 181756Z AUTO 00000KT 10SM -RA FEW022 OVC055 11/10 A2993 RMK AO2 SLP139 P0000 60002 T01110100 10111 20100 51016
PAWG 181755Z 10004KT 10SM FEW006 BKN035 OVC065 11/09 A3009
PAWG 181741Z 1818/1918 24005KT P6SM -SHRA BKN035 OVC060 
     TEMPO 1818/1822 VRB04KT 6SM -SHRA BR FEW006 BKN025 OVC035 
     FM190400 VRB04KT P6SM VCSH SCT020 OVC050 AMD LTD TO CLD VIS AND WIND
1906/1915
       
PAYA 181811Z AUTO VRB05KT 10SM -RA SCT008 OVC042 12/10 A2995 RMK AO2 P0000 T01170100 TSNO
PAYA 181741Z 1818/1918 VRB03KT P6SM -SHRA SCT006 BKN035 OVC050 
     TEMPO 1818/1821 6SM -SHRA BKN006 OVC030 
     FM182300 22005KT P6SM VCSH BKN035 OVC050 
     FM190600 29003KT 6SM -SHRA FEW015 OVC025 AMD LTD TO CLD VIS AND WIND